Time;durP1;ratioP1;P1;durP2;ratioP2;P2;SDS_P1;SDS_P2;PMS_P1;PMS_P2;Temp;Humidity;BMP_temperature;BMP_pressure;BME280_temperature;BME280_humidity;BME280_pressure;Samples;Min_cycle;Max_cycle;Signal;HPM_P1;HPM_P2
2023/06/07 00:00:44;;;;;;;7.07;4.20;;;;;;;17.36;65.56;99681.50;5051640;28;20416;-86
2023/06/07 00:03:09;;;;;;;10.18;5.22;;;;;;;17.19;65.91;99680.00;5053562;28;20028;-86
2023/06/07 00:05:39;;;;;;;7.75;4.38;;;;;;;17.16;66.18;99680.75;5051022;28;20041;-85
2023/06/07 00:08:05;;;;;;;8.98;4.65;;;;;;;17.19;66.06;99680.00;5051675;28;20024;-86
2023/06/07 00:10:33;;;;;;;5.65;4.57;;;;;;;17.38;65.71;99678.31;5051094;28;20032;-85
2023/06/07 00:12:59;;;;;;;8.43;5.03;;;;;;;17.22;66.19;99681.25;5051364;28;20159;-86
2023/06/07 00:15:24;;;;;;;7.18;4.30;;;;;;;16.88;67.95;99693.06;5049766;28;20119;-86
2023/06/07 00:17:50;;;;;;;9.13;4.40;;;;;;;16.90;67.64;99678.59;5036712;28;20206;-87
2023/06/07 00:20:15;;;;;;;10.38;4.97;;;;;;;16.86;67.68;99678.50;5031680;28;20029;-87
2023/06/07 00:22:41;;;;;;;8.70;4.78;;;;;;;17.14;67.42;99688.78;5033346;28;20055;-86
2023/06/07 00:25:08;;;;;;;8.98;5.13;;;;;;;16.97;66.99;99665.41;5046083;28;20426;-86
2023/06/07 00:27:34;;;;;;;7.85;5.28;;;;;;;17.04;66.93;99675.28;5050179;28;20029;-86
2023/06/07 00:30:00;;;;;;;9.23;5.20;;;;;;;17.00;67.11;99682.84;5051615;28;20170;-86
2023/06/07 00:32:26;;;;;;;8.93;4.65;;;;;;;16.81;68.62;99676.81;5048934;28;20017;-86
2023/06/07 00:34:51;;;;;;;6.90;4.65;;;;;;;16.74;68.90;99673.03;5045612;28;20053;-86
2023/06/07 00:37:16;;;;;;;7.32;4.13;;;;;;;16.86;68.60;99670.03;5051396;28;20025;-86
2023/06/07 00:39:42;;;;;;;8.27;4.75;;;;;;;16.72;69.08;99675.41;5050960;28;20510;-86
2023/06/07 00:42:07;;;;;;;11.82;5.18;;;;;;;16.90;68.15;99675.75;5051305;28;20098;-86
2023/06/07 00:44:33;;;;;;;7.72;4.85;;;;;;;16.74;69.08;99679.50;5050927;28;20500;-86
2023/06/07 00:46:59;;;;;;;9.27;5.60;;;;;;;16.58;69.10;99662.63;5050201;28;20029;-86
2023/06/07 00:49:26;;;;;;;8.82;5.47;;;;;;;16.53;69.33;99683.50;5051405;28;20082;-86
2023/06/07 00:51:52;;;;;;;7.63;5.30;;;;;;;16.53;69.84;99671.38;5051410;28;20044;-86
2023/06/07 00:54:19;;;;;;;6.28;4.95;;;;;;;16.60;69.33;99671.53;5050744;28;20028;-86
2023/06/07 00:56:49;;;;;;;9.95;5.07;;;;;;;16.59;69.04;99655.78;5050909;28;20025;-86
2023/06/07 00:59:17;;;;;;;12.65;5.53;;;;;;;16.69;69.31;99671.31;5050986;28;20518;-86
2023/06/07 01:01:44;;;;;;;8.80;5.38;;;;;;;16.71;69.31;99654.81;5049794;28;20096;-86
2023/06/07 01:04:10;;;;;;;10.98;5.60;;;;;;;16.81;68.73;99670.34;5049158;28;20538;-86
2023/06/07 01:06:37;;;;;;;10.15;5.63;;;;;;;16.51;69.37;99645.53;5050609;28;20023;-86
2023/06/07 01:09:05;;;;;;;9.15;5.85;;;;;;;16.68;69.40;99666.84;5050367;28;20024;-85
2023/06/07 01:11:33;;;;;;;7.38;5.53;;;;;;;16.49;69.83;99647.91;5051029;28;20021;-86
2023/06/07 01:13:58;;;;;;;10.32;5.68;;;;;;;16.55;69.09;99652.09;5050633;28;20025;-86
2023/06/07 01:16:25;;;;;;;8.50;5.88;;;;;;;16.68;68.95;99667.69;5050508;28;20021;-86
2023/06/07 01:18:51;;;;;;;8.90;6.30;;;;;;;16.57;69.38;99661.00;5048374;28;20036;-86
2023/06/07 01:21:20;;;;;;;10.52;6.70;;;;;;;16.67;68.82;99671.69;5050253;28;20060;-86
2023/06/07 01:23:46;;;;;;;9.48;6.82;;;;;;;16.49;69.67;99660.03;5051479;28;20075;-86
2023/06/07 01:26:12;;;;;;;7.13;6.30;;;;;;;16.36;69.20;99662.16;5049341;28;20064;-86
2023/06/07 01:28:41;;;;;;;10.73;6.43;;;;;;;16.36;69.68;99664.19;5050410;28;20458;-86
2023/06/07 01:31:08;;;;;;;12.00;7.00;;;;;;;16.29;70.50;99662.03;5050326;28;20025;-86
2023/06/07 01:33:35;;;;;;;13.70;6.68;;;;;;;16.51;70.08;99674.59;5041140;28;20017;-86
2023/06/07 01:36:05;;;;;;;13.68;6.03;;;;;;;16.45;69.62;99659.13;5050404;28;20424;-86
2023/06/07 01:38:32;;;;;;;8.20;6.27;;;;;;;16.36;70.09;99676.28;5041512;28;20027;-86
2023/06/07 01:40:58;;;;;;;10.23;6.78;;;;;;;15.99;71.10;99662.53;5052255;28;20024;-86
2023/06/07 01:43:25;;;;;;;8.60;6.13;;;;;;;15.86;71.18;99651.34;5053235;28;20027;-86
2023/06/07 01:45:52;;;;;;;12.27;6.60;;;;;;;16.02;71.02;99664.63;5071076;28;20406;-86
2023/06/07 01:48:18;;;;;;;12.73;6.43;;;;;;;15.99;71.56;99673.84;5052438;28;20479;-86
2023/06/07 01:50:44;;;;;;;13.63;5.57;;;;;;;16.00;71.40;99667.00;5053710;28;20028;-86
2023/06/07 01:53:10;;;;;;;9.00;5.88;;;;;;;15.84;71.93;99652.91;5053537;28;20572;-86
2023/06/07 01:55:36;;;;;;;8.93;5.85;;;;;;;15.78;72.16;99649.53;5051876;28;20090;-86
2023/06/07 01:58:20;;;;;;;9.70;5.60;;;;;;;15.99;71.84;99665.38;5053522;28;20029;-86
2023/06/07 02:01:13;;;;;;;11.40;5.85;;;;;;;16.03;72.09;99657.00;5053288;28;20483;-86
2023/06/07 02:03:43;;;;;;;8.20;5.60;;;;;;;16.14;71.79;99660.88;5060328;28;20036;-85
2023/06/07 02:06:13;;;;;;;9.50;5.68;;;;;;;16.12;71.27;99652.78;5053417;28;20090;-86
2023/06/07 02:08:53;;;;;;;8.73;5.07;;;;;;;16.17;71.28;99662.13;5053342;28;20507;-86
2023/06/07 02:11:21;;;;;;;6.45;5.50;;;;;;;16.27;70.51;99668.03;5052223;28;20029;-86
2023/06/07 02:13:49;;;;;;;9.73;5.85;;;;;;;16.25;70.39;99653.47;5053510;28;20016;-86
2023/06/07 02:16:15;;;;;;;8.57;5.70;;;;;;;16.07;71.00;99664.34;5053037;28;20025;-85
2023/06/07 02:18:41;;;;;;;22.08;5.97;;;;;;;15.81;72.16;99664.91;5049171;28;20039;-86
2023/06/07 02:21:10;;;;;;;9.07;6.60;;;;;;;15.77;73.01;99664.03;5044514;28;20491;-86
2023/06/07 02:23:36;;;;;;;9.98;6.53;;;;;;;15.83;72.50;99656.91;5053026;28;20111;-85
2023/06/07 02:26:03;;;;;;;8.68;5.78;;;;;;;15.90;72.09;99661.91;5053184;28;20089;-86
2023/06/07 02:28:28;;;;;;;12.45;6.55;;;;;;;16.04;72.08;99661.44;5051801;28;20032;-86
2023/06/07 02:30:55;;;;;;;15.13;7.10;;;;;;;16.11;71.15;99658.81;5053313;28;20025;-86
2023/06/07 02:33:24;;;;;;;10.95;6.43;;;;;;;16.11;71.27;99662.44;5051095;28;20518;-86
2023/06/07 02:35:49;;;;;;;9.95;5.88;;;;;;;15.97;71.46;99659.28;5052536;28;20051;-86
2023/06/07 02:38:15;;;;;;;13.95;6.40;;;;;;;15.95;71.73;99658.84;5056366;28;20020;-86
2023/06/07 02:40:40;;;;;;;12.82;6.20;;;;;;;16.01;71.66;99671.47;5074761;28;20024;-85
2023/06/07 02:43:06;;;;;;;9.57;5.57;;;;;;;15.77;72.28;99662.00;5056027;28;20507;-86
2023/06/07 02:45:31;;;;;;;10.68;5.75;;;;;;;15.63;72.91;99670.94;5056376;28;20028;-86
2023/06/07 02:47:57;;;;;;;11.52;5.93;;;;;;;15.61;73.19;99662.00;5056495;28;20120;-86
2023/06/07 02:50:23;;;;;;;9.05;6.18;;;;;;;15.76;72.43;99656.75;5038158;28;20121;-86
2023/06/07 02:52:48;;;;;;;13.55;6.68;;;;;;;15.87;71.92;99652.19;5036896;28;20064;-86
2023/06/07 02:55:14;;;;;;;11.52;6.05;;;;;;;15.82;72.27;99661.75;5051638;28;20029;-86
2023/06/07 02:57:41;;;;;;;11.93;6.65;;;;;;;15.78;72.53;99654.38;5056696;28;20127;-86
2023/06/07 03:00:13;;;;;;;15.98;7.10;;;;;;;15.82;72.19;99656.09;5055700;28;20024;-86
2023/06/07 03:02:39;;;;;;;13.65;5.90;;;;;;;15.80;72.36;99669.72;5057024;28;20423;-86
2023/06/07 03:05:05;;;;;;;11.38;7.18;;;;;;;15.80;72.34;99666.91;5047478;28;20028;-86
2023/06/07 03:07:32;;;;;;;12.75;6.30;;;;;;;15.72;72.41;99656.66;5056402;28;20020;-86
2023/06/07 03:09:58;;;;;;;12.38;6.10;;;;;;;15.73;72.39;99658.28;5056385;28;20032;-86
2023/06/07 03:12:23;;;;;;;15.23;6.32;;;;;;;15.56;72.62;99671.56;5056263;28;20020;-85
2023/06/07 03:14:49;;;;;;;14.02;5.88;;;;;;;15.41;74.28;99653.50;5056499;28;20017;-86
2023/06/07 03:17:17;;;;;;;9.98;6.55;;;;;;;15.22;75.04;99644.94;5056023;28;20522;-86
2023/06/07 03:19:42;;;;;;;11.48;6.60;;;;;;;15.06;75.59;99664.63;5046458;28;20025;-86
2023/06/07 03:22:08;;;;;;;12.23;5.97;;;;;;;14.92;76.86;99660.22;5055872;28;20465;-86
2023/06/07 03:24:36;;;;;;;14.48;7.18;;;;;;;15.30;75.04;99670.09;5055815;28;20025;-86
2023/06/07 03:27:03;;;;;;;14.48;7.18;;;;;;;15.19;74.95;99654.91;5056319;28;20119;-86
2023/06/07 03:29:30;;;;;;;15.50;8.00;;;;;;;15.18;74.96;99650.47;5055996;28;20020;-86
2023/06/07 03:31:55;;;;;;;11.23;6.00;;;;;;;15.29;74.85;99660.00;5056263;28;20020;-87
2023/06/07 03:34:21;;;;;;;8.18;6.18;;;;;;;15.24;74.55;99654.66;5055030;28;20052;-88
2023/06/07 03:36:47;;;;;;;14.88;11.35;;;;;;;15.41;74.57;99656.31;5056555;28;20090;-89
2023/06/07 03:39:13;;;;;;;15.55;9.57;;;;;;;15.42;74.31;99643.00;5056525;28;20024;-88
2023/06/07 03:41:38;;;;;;;13.63;6.70;;;;;;;15.57;73.71;99652.66;5056312;28;20089;-88
2023/06/07 03:44:04;;;;;;;11.80;6.65;;;;;;;15.61;73.69;99656.38;5055988;28;20572;-89
2023/06/07 03:46:30;;;;;;;10.35;6.50;;;;;;;15.49;73.84;99648.84;5051052;28;20021;-88
2023/06/07 03:48:55;;;;;;;14.38;6.90;;;;;;;15.47;73.46;99634.31;5067744;28;20046;-88
2023/06/07 03:51:21;;;;;;;13.55;7.57;;;;;;;15.56;74.21;99656.66;5045069;28;20029;-89
2023/06/07 03:53:46;;;;;;;12.15;8.00;;;;;;;15.33;74.52;99640.38;5039452;28;20396;-90
2023/06/07 03:56:12;;;;;;;13.45;7.13;;;;;;;15.23;75.08;99635.28;5056582;28;20028;-89
2023/06/07 03:58:37;;;;;;;12.13;7.32;;;;;;;15.43;75.29;99659.56;5056489;28;20035;-88
2023/06/07 04:01:03;;;;;;;32.80;7.20;;;;;;;15.45;75.53;99664.84;5054953;28;20111;-90
2023/06/07 04:03:32;;;;;;;12.20;6.97;;;;;;;15.26;76.07;99651.47;5056226;28;20028;-90
2023/06/07 04:05:58;;;;;;;13.88;7.82;;;;;;;15.05;76.95;99646.09;5054716;28;20506;-89
2023/06/07 04:08:23;;;;;;;9.45;6.85;;;;;;;14.62;79.76;99660.59;5073935;28;20028;-90
2023/06/07 04:10:49;;;;;;;10.23;6.40;;;;;;;14.99;78.76;99654.81;5053670;28;20029;-89
2023/06/07 04:13:15;;;;;;;15.02;7.28;;;;;;;15.13;78.83;99668.44;5054213;28;20055;-90
2023/06/07 04:15:41;;;;;;;8.80;6.57;;;;;;;14.99;79.11;99652.00;5053003;28;20118;-89
2023/06/07 04:18:06;;;;;;;16.10;7.57;;;;;;;15.22;78.99;99668.31;5054516;28;20082;-89
2023/06/07 04:20:32;;;;;;;25.02;7.40;;;;;;;15.28;79.32;99669.66;5055321;28;20024;-89
2023/06/07 04:22:57;;;;;;;12.85;6.65;;;;;;;15.15;79.73;99642.75;5055626;28;20020;-89
2023/06/07 04:25:32;;;;;;;16.90;7.57;;;;;;;15.13;80.27;99670.47;5054771;28;20028;-88
2023/06/07 04:28:00;;;;;;;10.48;8.40;;;;;;;15.05;81.67;99669.44;5054076;28;20038;-88
2023/06/07 04:30:34;;;;;;;16.23;8.95;;;;;;;14.99;81.75;99670.88;5052398;28;20032;-88
2023/06/07 04:33:03;;;;;;;28.52;10.48;;;;;;;15.13;81.20;99668.44;5066813;28;20051;-90
2023/06/07 04:35:31;;;;;;;13.85;10.98;;;;;;;15.35;79.99;99683.09;5053712;28;20052;-89
2023/06/07 04:37:57;;;;;;;29.42;11.05;;;;;;;15.41;79.62;99669.56;5053852;28;20415;-89
2023/06/07 04:40:23;;;;;;;16.92;10.15;;;;;;;15.65;78.64;99671.41;5049958;28;20491;-89
2023/06/07 04:43:04;;;;;;;25.58;11.27;;;;;;;15.83;77.15;99674.66;5052436;28;20027;-89
2023/06/07 04:45:34;;;;;;;18.67;10.82;;;;;;;15.93;76.50;99669.66;5052596;28;20060;-90
2023/06/07 04:48:00;;;;;;;16.92;9.75;;;;;;;16.27;75.59;99678.47;5041426;28;20518;-88
2023/06/07 04:50:28;;;;;;;19.90;12.10;;;;;;;16.37;74.01;99668.63;5034913;28;20041;-88
2023/06/07 04:53:00;;;;;;;26.42;13.70;;;;;;;16.48;73.13;99671.69;5034464;28;20054;-88
2023/06/07 04:55:30;;;;;;;27.00;12.55;;;;;;;16.66;72.32;99681.38;5034634;28;20021;-88
2023/06/07 04:57:58;;;;;;;21.50;11.70;;;;;;;16.61;73.25;99681.66;5053028;28;20036;-88
2023/06/07 05:00:26;;;;;;;21.05;12.30;;;;;;;16.88;71.72;99683.81;5034490;28;20032;-89
2023/06/07 05:02:54;;;;;;;30.00;13.43;;;;;;;16.44;72.16;99679.28;5054788;28;20131;-88
2023/06/07 05:05:20;;;;;;;26.75;13.75;;;;;;;16.22;73.18;99664.69;5054845;28;20024;-90
2023/06/07 05:07:46;;;;;;;25.20;12.13;;;;;;;16.78;71.71;99682.41;5055239;28;20411;-90
2023/06/07 05:10:12;;;;;;;28.08;13.90;;;;;;;16.61;72.63;99683.66;5054874;28;20028;-89
2023/06/07 05:12:38;;;;;;;24.92;13.05;;;;;;;16.55;73.16;99685.97;5054878;28;20027;-88
2023/06/07 05:15:05;;;;;;;23.45;12.95;;;;;;;16.55;72.72;99674.66;5072307;28;20020;-88
2023/06/07 05:17:30;;;;;;;28.15;12.30;;;;;;;16.76;72.92;99687.59;5052785;28;20063;-89
2023/06/07 05:19:56;;;;;;;26.85;12.27;;;;;;;16.48;73.21;99655.56;5069786;28;20078;-88
2023/06/07 05:22:22;;;;;;;23.35;11.20;;;;;;;16.57;72.96;99666.63;5049068;28;20033;-88
2023/06/07 05:24:48;;;;;;;17.92;10.30;;;;;;;16.59;72.61;99675.56;5052609;28;20074;-90
2023/06/07 05:27:14;;;;;;;18.98;10.23;;;;;;;16.60;72.12;99682.84;5050658;28;20059;-90
2023/06/07 05:29:40;;;;;;;24.60;10.65;;;;;;;16.73;72.80;99680.69;5069384;28;20070;-89
2023/06/07 05:32:05;;;;;;;22.42;11.27;;;;;;;16.86;72.73;99672.06;5051534;28;20047;-88
2023/06/07 05:34:31;;;;;;;14.90;9.77;;;;;;;17.24;71.25;99676.03;5039992;28;20037;-88
2023/06/07 05:36:58;;;;;;;23.48;9.52;;;;;;;17.76;68.31;99670.88;5052577;28;20032;-89
2023/06/07 05:39:23;;;;;;;17.30;8.60;;;;;;;18.08;67.89;99666.94;5053790;28;20035;-90
2023/06/07 05:41:49;;;;;;;13.57;9.63;;;;;;;18.00;67.83;99670.81;5054447;28;20069;-89
2023/06/07 05:44:15;;;;;;;20.13;9.50;;;;;;;18.36;66.54;99669.38;5052970;28;20029;-89
2023/06/07 05:46:40;;;;;;;13.35;6.95;;;;;;;18.30;66.50;99678.59;5054081;28;20035;-90
2023/06/07 05:49:06;;;;;;;15.00;7.97;;;;;;;18.29;66.71;99677.75;5053624;28;20037;-88
2023/06/07 05:51:31;;;;;;;18.48;8.35;;;;;;;18.15;66.58;99677.56;5051163;28;20138;-85
2023/06/07 05:53:57;;;;;;;18.15;7.85;;;;;;;17.74;67.26;99676.09;5052803;28;20029;-86
2023/06/07 05:56:22;;;;;;;13.43;7.45;;;;;;;18.27;66.30;99668.84;5052958;28;20507;-87
2023/06/07 05:58:50;;;;;;;13.73;7.97;;;;;;;18.20;67.71;99675.22;5052230;28;20438;-86
2023/06/07 06:01:17;;;;;;;8.93;7.18;;;;;;;18.49;67.15;99669.94;5051708;28;20123;-87
2023/06/07 06:03:42;;;;;;;10.05;7.13;;;;;;;18.71;65.90;99658.88;5053347;28;20430;-89
2023/06/07 06:06:13;;;;;;;13.10;7.05;;;;;;;19.04;64.25;99677.09;5054775;28;20034;-88
2023/06/07 06:08:38;;;;;;;15.93;7.18;;;;;;;19.19;62.51;99674.41;5053676;28;20089;-89
2023/06/07 06:11:04;;;;;;;13.85;6.82;;;;;;;19.50;62.07;99686.47;5053885;28;20441;-87
2023/06/07 06:13:30;;;;;;;9.68;6.97;;;;;;;19.38;61.90;99676.22;5074024;28;20049;-87
2023/06/07 06:15:56;;;;;;;14.80;6.95;;;;;;;19.35;61.85;99674.16;5057322;28;20024;-88
2023/06/07 06:18:21;;;;;;;13.82;6.60;;;;;;;19.42;61.69;99668.56;5056824;28;20109;-87
2023/06/07 06:20:47;;;;;;;16.52;7.53;;;;;;;19.92;60.59;99670.19;5057831;28;20056;-89
2023/06/07 06:23:12;;;;;;;12.07;6.30;;;;;;;19.86;58.95;99683.13;5058372;28;20029;-89
2023/06/07 06:25:38;;;;;;;16.85;7.97;;;;;;;19.02;61.31;99665.34;5057782;28;20032;-88
2023/06/07 06:28:03;;;;;;;12.95;6.68;;;;;;;18.86;62.79;99665.53;5057595;28;20086;-88
2023/06/07 06:30:29;;;;;;;13.77;6.82;;;;;;;19.03;63.05;99671.81;5073723;28;20025;-89
2023/06/07 06:32:55;;;;;;;13.68;6.65;;;;;;;19.67;61.10;99673.66;5056946;28;20032;-89
2023/06/07 06:35:21;;;;;;;10.10;6.10;;;;;;;19.82;60.52;99656.75;5074972;28;20048;-89
2023/06/07 06:37:46;;;;;;;9.88;6.97;;;;;;;19.94;60.33;99656.44;5058529;28;20025;-88
2023/06/07 06:52:07;;;;;;;10.68;7.13;;;;;;;20.14;59.27;99661.84;5079577;28;20629;-77
2023/06/07 06:54:32;;;;;;;17.70;8.15;;;;;;;20.10;59.76;99678.88;5077539;28;20491;-77
2023/06/07 06:56:58;;;;;;;13.88;6.13;;;;;;;20.20;59.30;99665.94;5057736;28;20025;-78
2023/06/07 06:59:23;;;;;;;9.73;7.05;;;;;;;20.42;58.71;99664.03;5070260;28;20020;-76
2023/06/07 07:01:50;;;;;;;9.27;6.38;;;;;;;20.29;58.30;99655.06;5068900;28;20032;-76
2023/06/07 07:04:16;;;;;;;14.25;6.13;;;;;;;20.55;58.40;99661.66;5066077;28;20063;-76
2023/06/07 07:06:42;;;;;;;13.38;7.68;;;;;;;20.46;59.16;99661.22;5060784;28;20036;-76
2023/06/07 07:09:09;;;;;;;8.77;6.68;;;;;;;19.88;60.60;99663.66;5066356;28;20033;-75
2023/06/07 07:11:37;;;;;;;12.48;6.60;;;;;;;20.36;60.32;99657.13;5058012;28;20108;-75
2023/06/07 07:14:03;;;;;;;26.02;7.53;;;;;;;20.35;59.65;99655.50;5064014;28;20033;-75
2023/06/07 07:16:31;;;;;;;12.05;6.95;;;;;;;20.76;58.39;99654.44;5066296;28;20568;-75
2023/06/07 07:18:57;;;;;;;10.80;6.78;;;;;;;21.15;57.53;99650.09;5060023;28;20404;-75
2023/06/07 07:21:22;;;;;;;15.98;7.97;;;;;;;20.68;59.28;99645.06;5062987;28;20055;-75
2023/06/07 07:23:48;;;;;;;14.95;8.30;;;;;;;20.59;59.12;99651.13;5066440;28;20028;-75
2023/06/07 07:26:13;;;;;;;13.02;8.15;;;;;;;19.95;60.55;99646.72;5067885;28;20548;-75
2023/06/07 07:28:39;;;;;;;13.90;8.55;;;;;;;19.54;63.61;99649.59;5057572;28;20060;-75
2023/06/07 07:31:04;;;;;;;24.33;7.93;;;;;;;20.15;61.75;99650.09;5050823;28;20025;-75
2023/06/07 07:33:30;;;;;;;19.38;6.97;;;;;;;20.75;58.96;99644.28;5050536;28;20194;-77
2023/06/07 07:35:55;;;;;;;11.50;6.82;;;;;;;20.98;58.13;99646.00;5060454;28;20098;-75
2023/06/07 07:38:21;;;;;;;12.70;7.03;;;;;;;20.31;60.10;99644.09;5053968;28;20029;-74
2023/06/07 07:40:47;;;;;;;13.18;6.45;;;;;;;20.76;60.50;99651.63;5059147;28;20024;-74
2023/06/07 07:43:12;;;;;;;19.10;6.68;;;;;;;21.28;58.00;99642.00;5055977;28;20452;-74
2023/06/07 07:45:38;;;;;;;10.30;6.70;;;;;;;21.45;58.51;99646.88;5063377;28;20036;-75
2023/06/07 07:48:04;;;;;;;8.93;5.85;;;;;;;21.46;57.90;99648.50;5047683;28;20079;-74
2023/06/07 07:50:29;;;;;;;11.93;5.88;;;;;;;21.71;58.09;99652.63;5045859;28;20467;-74
2023/06/07 07:52:56;;;;;;;12.60;6.35;;;;;;;21.69;56.78;99644.47;5052607;28;20025;-75
2023/06/07 07:55:22;;;;;;;10.52;5.55;;;;;;;21.82;56.54;99655.44;5052707;28;20452;-74
2023/06/07 07:57:48;;;;;;;7.55;5.60;;;;;;;21.90;56.79;99653.41;5054912;28;20037;-74
2023/06/07 08:00:14;;;;;;;12.40;6.10;;;;;;;22.17;54.94;99653.78;5056962;28;20029;-77
2023/06/07 08:02:40;;;;;;;8.02;6.47;;;;;;;22.21;54.92;99648.06;5036589;28;20029;-78
2023/06/07 08:05:06;;;;;;;11.20;5.78;;;;;;;22.36;53.33;99649.66;5033161;28;20033;-75
2023/06/07 08:07:32;;;;;;;8.48;6.82;;;;;;;22.38;54.37;99650.03;5030388;28;20396;-77
2023/06/07 08:09:57;;;;;;;12.95;7.00;;;;;;;22.05;55.07;99649.34;5045759;28;20032;-76
2023/06/07 08:12:23;;;;;;;9.50;6.72;;;;;;;22.21;55.53;99654.59;5039507;28;20060;-77
2023/06/07 08:14:48;;;;;;;15.95;7.55;;;;;;;22.37;55.10;99651.28;5033220;28;20091;-74
2023/06/07 08:17:14;;;;;;;9.07;6.57;;;;;;;22.59;55.47;99645.53;5039199;28;20036;-75
2023/06/07 08:19:40;;;;;;;12.02;7.53;;;;;;;22.70;54.04;99639.81;5041337;28;20025;-73
2023/06/07 08:22:05;;;;;;;14.77;8.48;;;;;;;22.46;55.36;99628.06;5044240;28;20419;-75
2023/06/07 08:24:31;;;;;;;11.35;8.25;;;;;;;22.20;55.64;99638.69;5042224;28;20084;-74
2023/06/07 08:26:56;;;;;;;14.05;8.35;;;;;;;22.19;56.25;99637.06;5040616;28;20064;-73
2023/06/07 08:29:22;;;;;;;13.52;8.52;;;;;;;22.18;57.39;99641.16;5035604;28;20022;-74
2023/06/07 08:31:47;;;;;;;19.98;9.43;;;;;;;22.14;57.53;99634.66;5042200;28;20025;-73
2023/06/07 08:34:13;;;;;;;25.35;9.50;;;;;;;22.20;56.55;99640.75;5041036;28;20033;-72
2023/06/07 08:36:39;;;;;;;15.68;9.50;;;;;;;22.39;56.75;99636.63;5036541;28;20041;-74
2023/06/07 08:39:05;;;;;;;16.08;9.85;;;;;;;22.58;56.21;99639.03;5036993;28;20021;-74
2023/06/07 08:41:30;;;;;;;14.60;9.40;;;;;;;22.99;54.73;99637.59;5039022;28;20048;-74
2023/06/07 08:43:56;;;;;;;15.85;10.27;;;;;;;22.97;55.97;99642.91;5037827;28;20051;-76
2023/06/07 08:46:23;;;;;;;14.25;10.52;;;;;;;22.99;55.63;99642.50;5043591;28;20466;-75
2023/06/07 08:48:49;;;;;;;18.33;10.27;;;;;;;22.52;55.48;99640.69;5061249;28;20021;-75
2023/06/07 08:51:17;;;;;;;18.15;10.00;;;;;;;22.77;54.64;99631.19;5034963;28;20045;-76
2023/06/07 08:53:54;;;;;;;14.13;9.35;;;;;;;22.94;54.97;99635.19;5034228;28;20026;-75
2023/06/07 08:56:21;;;;;;;15.65;10.02;;;;;;;22.74;55.77;99634.06;5044277;28;20548;-75
2023/06/07 08:58:48;;;;;;;16.27;9.18;;;;;;;23.00;55.24;99639.22;5032155;28;20493;-76
2023/06/07 09:01:15;;;;;;;15.55;9.52;;;;;;;22.80;53.77;99638.91;5030730;28;20021;-76
2023/06/07 09:03:40;;;;;;;15.10;11.13;;;;;;;22.86;54.32;99642.97;5035501;28;20057;-76
2023/06/07 09:06:06;;;;;;;12.95;8.57;;;;;;;23.03;54.04;99637.56;5032485;28;20072;-76
2023/06/07 09:08:32;;;;;;;13.10;9.25;;;;;;;23.31;53.46;99635.81;5040429;28;20029;-73
2023/06/07 09:10:57;;;;;;;19.02;8.98;;;;;;;23.66;52.89;99639.59;5048073;28;20040;-78
2023/06/07 09:13:24;;;;;;;14.40;7.80;;;;;;;23.67;52.13;99640.41;5047810;28;20028;-72
2023/06/07 09:15:52;;;;;;;16.92;8.02;;;;;;;23.87;51.19;99629.19;5044266;28;20738;-72
2023/06/07 09:18:18;;;;;;;14.90;8.02;;;;;;;24.09;50.65;99634.72;5026324;28;20041;-72
2023/06/07 09:20:44;;;;;;;12.65;8.85;;;;;;;23.84;50.55;99625.16;5029471;28;20079;-72
2023/06/07 09:23:14;;;;;;;10.45;7.57;;;;;;;23.74;51.88;99628.09;5028320;28;20029;-73
2023/06/07 09:25:44;;;;;;;16.65;8.55;;;;;;;24.24;49.87;99619.03;5031229;28;20056;-72
2023/06/07 09:28:11;;;;;;;12.38;7.10;;;;;;;24.09;50.20;99626.16;5038426;28;20045;-74
2023/06/07 09:30:51;;;;;;;14.45;8.95;;;;;;;24.47;50.63;99623.25;5030924;28;20428;-74
2023/06/07 09:33:33;;;;;;;12.75;8.07;;;;;;;24.32;47.75;99616.94;5027721;28;20038;-75
2023/06/07 09:36:11;;;;;;;14.40;7.53;;;;;;;24.41;48.84;99619.28;5030867;28;20035;-74
2023/06/07 09:38:37;;;;;;;13.52;8.10;;;;;;;24.50;50.55;99622.44;5029829;28;20108;-72
2023/06/07 09:41:05;;;;;;;10.20;7.53;;;;;;;24.45;47.92;99624.94;5036503;28;20113;-76
2023/06/07 09:43:47;;;;;;;15.20;8.20;;;;;;;24.06;49.62;99616.38;5042969;28;20035;-73
2023/06/07 09:46:14;;;;;;;13.35;7.90;;;;;;;23.94;50.60;99614.84;5030318;28;20071;-72
2023/06/07 09:48:49;;;;;;;9.77;7.75;;;;;;;24.43;48.79;99618.81;5028917;28;20033;-73
2023/06/07 09:51:15;;;;;;;11.40;7.55;;;;;;;24.84;46.75;99614.25;5038392;28;20057;-74
2023/06/07 09:54:00;;;;;;;8.80;6.68;;;;;;;25.08;45.40;99621.66;5044486;28;20091;-74
2023/06/07 09:56:25;;;;;;;9.55;6.90;;;;;;;24.73;45.46;99618.03;5028584;28;20143;-73
2023/06/07 09:59:13;;;;;;;9.70;6.68;;;;;;;24.74;45.97;99616.81;5039804;28;20517;-73
2023/06/07 10:01:42;;;;;;;7.07;5.60;;;;;;;24.79;42.82;99615.53;5035345;28;20017;-73
2023/06/07 10:04:08;;;;;;;13.00;6.75;;;;;;;25.06;43.76;99609.84;5031502;28;20403;-75
2023/06/07 10:06:47;;;;;;;8.98;6.30;;;;;;;25.03;45.11;99596.41;5036376;28;20022;-74
2023/06/07 10:09:16;;;;;;;12.18;7.55;;;;;;;25.10;45.32;99595.47;5032699;28;20032;-74
2023/06/07 10:11:48;;;;;;;21.95;7.90;;;;;;;24.93;45.32;99594.50;5039033;28;20083;-74
2023/06/07 10:14:20;;;;;;;10.13;7.35;;;;;;;25.26;44.16;99597.69;5031872;28;20072;-74
2023/06/07 10:17:06;;;;;;;8.68;7.30;;;;;;;25.08;45.17;99587.31;5029200;28;20182;-74
2023/06/07 10:19:42;;;;;;;10.68;6.63;;;;;;;25.45;44.55;99589.59;5038196;28;20506;-74
2023/06/07 10:22:34;;;;;;;11.55;7.32;;;;;;;25.50;44.12;99589.16;5031719;28;20492;-74
2023/06/07 10:25:28;;;;;;;10.10;6.90;;;;;;;24.95;45.16;99589.16;5030160;28;20037;-74
2023/06/07 10:28:21;;;;;;;10.85;7.07;;;;;;;24.89;45.18;99588.03;5044303;28;20128;-74
2023/06/07 10:31:03;;;;;;;10.88;7.20;;;;;;;25.27;45.27;99584.19;5026732;28;20037;-74
2023/06/07 10:33:29;;;;;;;13.02;6.75;;;;;;;25.61;43.53;99584.06;5031633;28;20017;-74
2023/06/07 10:35:55;;;;;;;13.32;7.35;;;;;;;25.40;44.09;99585.22;5045087;28;20104;-74
2023/06/07 10:38:21;;;;;;;12.82;7.40;;;;;;;25.54;44.17;99578.44;5038673;28;20021;-74
2023/06/07 10:40:47;;;;;;;11.93;7.40;;;;;;;25.92;43.15;99591.69;5036331;28;20028;-74
2023/06/07 10:43:12;;;;;;;10.50;6.78;;;;;;;26.09;42.08;99584.00;5036653;28;20072;-74
2023/06/07 10:45:38;;;;;;;10.93;6.38;;;;;;;25.88;42.23;99573.72;5035277;28;20032;-74
2023/06/07 10:48:48;;;;;;;11.77;6.93;;;;;;;25.49;42.24;99581.81;5030665;28;20032;-74
2023/06/07 10:51:13;;;;;;;12.13;6.43;;;;;;;25.66;44.13;99565.56;5041011;28;20099;-74
2023/06/07 10:53:53;;;;;;;8.15;5.47;;;;;;;25.69;42.38;99578.19;5038253;28;20025;-74
2023/06/07 10:56:32;;;;;;;11.45;6.55;;;;;;;25.95;42.27;99564.22;5049597;28;20020;-74
2023/06/07 10:59:21;;;;;;;7.82;5.50;;;;;;;25.84;41.66;99573.00;5071043;28;20039;-74
2023/06/07 11:01:49;;;;;;;6.13;5.53;;;;;;;25.57;42.41;99568.97;5055768;28;20402;-74
2023/06/07 11:04:55;;;;;;;11.10;5.72;;;;;;;25.93;41.49;99559.72;5043990;28;20480;-74
2023/06/07 11:07:30;;;;;;;7.63;5.75;;;;;;;26.25;41.04;99560.38;5051667;28;20020;-74
2023/06/07 11:10:04;;;;;;;11.60;5.57;;;;;;;26.08;41.64;99553.72;5031436;28;20026;-74
2023/06/07 11:12:35;;;;;;;12.95;5.32;;;;;;;26.05;42.14;99555.41;5037007;28;20037;-74
2023/06/07 11:15:36;;;;;;;13.25;6.05;;;;;;;25.95;42.02;99564.22;5030607;28;20030;-74
2023/06/07 11:18:08;;;;;;;9.75;5.78;;;;;;;26.34;40.81;99551.97;5038859;28;20403;-74
2023/06/07 11:20:39;;;;;;;10.75;5.72;;;;;;;26.78;39.63;99546.06;5044019;28;20024;-74
2023/06/07 11:23:24;;;;;;;9.25;5.65;;;;;;;27.02;39.53;99540.22;5038198;28;20033;-74
2023/06/07 11:26:05;;;;;;;8.60;4.70;;;;;;;26.66;39.93;99543.91;5037887;28;20028;-74
2023/06/07 11:28:32;;;;;;;9.57;5.38;;;;;;;26.61;39.97;99532.97;5043127;28;20108;-74
2023/06/07 11:30:58;;;;;;;6.55;5.78;;;;;;;26.64;38.82;99526.34;5050538;28;20055;-74
2023/06/07 11:33:25;;;;;;;14.82;6.63;;;;;;;26.67;39.93;99531.19;5033780;28;20124;-74
2023/06/07 11:35:51;;;;;;;9.23;5.60;;;;;;;26.54;39.89;99530.25;5030523;28;20038;-74
2023/06/07 11:38:17;;;;;;;10.45;5.30;;;;;;;26.89;38.75;99525.78;5038298;28;20091;-74
2023/06/07 11:40:44;;;;;;;8.52;5.80;;;;;;;26.91;38.21;99511.78;5039737;28;20033;-74
2023/06/07 11:43:13;;;;;;;7.10;5.65;;;;;;;27.10;39.22;99517.91;5034036;28;20099;-74